Time;durP1;ratioP1;P1;durP2;ratioP2;P2;SDS_P1;SDS_P2;PMS_P1;PMS_P2;Temp;Humidity;BMP_temperature;BMP_pressure;BME280_temperature;BME280_humidity;BME280_pressure;Samples;Min_cycle;Max_cycle;Signal;HPM_P1;HPM_P2
2021/11/02 00:02:18;;;;;;;3.75;1.52;;;19.40;49.10;;;;;;5064509;28;20268;-49
2021/11/02 00:04:48;;;;;;;2.72;1.70;;;19.50;49.20;;;;;;5063678;28;20242;-44
2021/11/02 00:07:19;;;;;;;3.65;1.48;;;19.40;49.10;;;;;;5053194;28;20286;-47
2021/11/02 00:10:03;;;;;;;3.88;1.92;;;19.40;49.20;;;;;;5051351;28;20227;-42
2021/11/02 00:12:34;;;;;;;4.90;1.95;;;19.40;49.10;;;;;;5035038;28;20204;-41
2021/11/02 00:15:06;;;;;;;3.47;1.67;;;19.40;49.10;;;;;;5067858;28;20306;-43
2021/11/02 00:17:38;;;;;;;4.00;1.70;;;19.50;49.20;;;;;;5066335;28;20314;-39
2021/11/02 00:20:14;;;;;;;4.07;1.50;;;19.40;49.10;;;;;;5063286;28;20209;-44
2021/11/02 00:22:53;;;;;;;3.13;1.38;;;19.50;49.20;;;;;;5061033;28;20194;-43
2021/11/02 00:25:24;;;;;;;14.32;2.22;;;19.50;49.10;;;;;;5063500;28;20206;-41
2021/11/02 00:27:55;;;;;;;10.15;2.42;;;19.50;49.20;;;;;;5058696;28;20249;-50
2021/11/02 00:30:27;;;;;;;15.85;2.33;;;19.50;49.30;;;;;;5056611;28;20202;-47
2021/11/02 00:32:58;;;;;;;6.97;2.05;;;19.50;49.40;;;;;;5051544;28;20282;-49
2021/11/02 00:35:29;;;;;;;11.77;3.80;;;19.50;49.30;;;;;;5049955;28;20192;-44
2021/11/02 00:38:00;;;;;;;7.20;2.55;;;19.50;50.00;;;;;;5066802;28;20218;-40
2021/11/02 00:40:30;;;;;;;10.90;3.20;;;19.60;50.90;;;;;;5068035;28;20195;-38
2021/11/02 00:43:02;;;;;;;7.88;2.75;;;19.60;51.20;;;;;;5052251;28;20245;-50
2021/11/02 00:45:35;;;;;;;7.43;2.47;;;19.60;51.30;;;;;;5062222;28;20579;-44
2021/11/02 00:48:08;;;;;;;10.98;2.92;;;19.60;51.90;;;;;;5063842;28;20688;-42
2021/11/02 00:50:40;;;;;;;9.35;3.30;;;19.60;51.40;;;;;;5055588;28;20254;-41
2021/11/02 00:53:11;;;;;;;10.25;3.00;;;19.70;51.40;;;;;;5056434;28;20221;-45
2021/11/02 00:55:42;;;;;;;9.70;3.05;;;19.70;51.40;;;;;;5064284;28;20720;-46
2021/11/02 00:58:12;;;;;;;10.55;3.53;;;19.70;51.40;;;;;;5054658;28;20222;-47
2021/11/02 01:00:45;;;;;;;8.15;3.58;;;19.70;51.40;;;;;;5050841;28;20231;-50
2021/11/02 01:03:16;;;;;;;11.05;3.35;;;19.70;51.30;;;;;;5049287;28;20215;-42
2021/11/02 01:05:47;;;;;;;10.10;3.20;;;19.70;51.30;;;;;;5051229;28;20586;-39
2021/11/02 01:08:17;;;;;;;7.97;3.53;;;19.70;51.30;;;;;;5054081;28;20202;-46
2021/11/02 01:10:49;;;;;;;11.52;3.67;;;19.70;51.30;;;;;;5053003;28;20223;-47
2021/11/02 01:13:20;;;;;;;9.57;3.28;;;19.80;51.50;;;;;;5049051;28;20787;-38
2021/11/02 01:15:53;;;;;;;10.07;2.95;;;19.80;51.60;;;;;;5055922;28;20199;-38
2021/11/02 01:18:23;;;;;;;14.73;3.75;;;19.80;51.60;;;;;;5058395;28;20219;-41
2021/11/02 01:20:54;;;;;;;11.48;3.80;;;19.80;51.50;;;;;;5049870;28;20207;-48
2021/11/02 01:23:25;;;;;;;13.60;3.67;;;19.80;51.50;;;;;;5065903;28;20563;-46
2021/11/02 01:25:55;;;;;;;12.25;3.97;;;19.80;52.00;;;;;;5049815;28;20196;-52
2021/11/02 01:28:26;;;;;;;10.82;4.50;;;19.90;51.50;;;;;;5056009;28;20206;-42
2021/11/02 01:30:58;;;;;;;11.38;4.28;;;19.90;51.70;;;;;;5049994;28;20291;-45
2021/11/02 01:33:29;;;;;;;9.68;3.47;;;19.90;51.90;;;;;;5050765;28;20219;-45
2021/11/02 01:35:59;;;;;;;10.18;3.78;;;19.90;51.90;;;;;;5050459;28;20239;-39
2021/11/02 01:38:30;;;;;;;6.97;3.05;;;19.90;51.70;;;;;;5055994;28;20222;-44
2021/11/02 01:41:02;;;;;;;7.00;2.95;;;19.90;51.60;;;;;;5063983;28;20191;-44
2021/11/02 01:43:33;;;;;;;5.35;2.95;;;19.90;51.40;;;;;;5063379;28;20226;-39
2021/11/02 01:46:06;;;;;;;10.40;3.40;;;19.90;51.30;;;;;;5034742;28;20211;-43
2021/11/02 01:48:37;;;;;;;10.43;3.83;;;19.90;51.20;;;;;;5066208;28;20673;-44
2021/11/02 01:51:08;;;;;;;6.03;2.35;;;19.90;51.10;;;;;;5066039;28;20559;-42
2021/11/02 01:53:38;;;;;;;8.15;2.83;;;20.00;51.30;;;;;;5063394;28;20225;-43
2021/11/02 01:56:10;;;;;;;8.15;2.40;;;19.90;51.40;;;;;;5063340;28;20205;-48
2021/11/02 01:58:43;;;;;;;7.53;2.20;;;19.90;51.40;;;;;;5061976;28;20612;-48
2021/11/02 02:01:21;;;;;;;6.53;2.00;;;19.90;51.30;;;;;;5059081;28;20231;-47
2021/11/02 02:03:58;;;;;;;5.85;1.75;;;19.90;51.20;;;;;;5057913;28;20268;-48
2021/11/02 02:06:37;;;;;;;7.38;2.03;;;19.80;51.80;;;;;;5064813;28;20203;-46
2021/11/02 02:09:15;;;;;;;4.78;1.52;;;19.80;51.30;;;;;;5065875;28;20199;-40
2021/11/02 02:11:53;;;;;;;4.95;1.75;;;19.80;51.50;;;;;;5054065;28;20199;-41
2021/11/02 02:14:35;;;;;;;5.47;1.80;;;19.70;51.70;;;;;;5052768;28;20650;-49
2021/11/02 02:17:14;;;;;;;7.93;2.20;;;19.70;52.00;;;;;;5036025;28;20201;-45
2021/11/02 02:19:50;;;;;;;5.95;1.88;;;19.70;52.20;;;;;;5069983;28;20240;-46
2021/11/02 02:22:56;;;;;;;3.55;1.52;;;19.60;52.30;;;;;;5070061;28;20197;-47
2021/11/02 02:25:41;;;;;;;5.63;2.83;;;19.60;52.60;;;;;;5050528;28;20203;-42
2021/11/02 02:28:17;;;;;;;13.63;9.65;;;19.50;52.70;;;;;;5055549;28;20202;-53
2021/11/02 02:30:52;;;;;;;13.38;6.50;;;19.50;52.90;;;;;;5053127;28;20576;-44
2021/11/02 02:33:26;;;;;;;11.18;6.20;;;19.40;52.90;;;;;;5065858;28;20222;-50
2021/11/02 02:35:57;;;;;;;7.93;4.47;;;19.40;53.10;;;;;;5058888;28;20199;-44
2021/11/02 02:38:29;;;;;;;8.00;2.80;;;19.40;53.30;;;;;;5059076;28;20218;-42
2021/11/02 02:41:00;;;;;;;5.68;2.20;;;19.30;53.40;;;;;;5066466;28;20230;-51
2021/11/02 02:43:36;;;;;;;6.10;2.10;;;19.30;53.60;;;;;;5061571;28;20677;-47
2021/11/02 02:46:08;;;;;;;3.70;1.77;;;19.30;53.90;;;;;;5053353;28;20190;-42
2021/11/02 02:48:43;;;;;;;3.72;1.33;;;19.20;53.80;;;;;;5065218;28;20239;-40
2021/11/02 02:51:17;;;;;;;5.18;1.70;;;19.20;54.30;;;;;;5036702;28;20278;-47
2021/11/02 02:53:49;;;;;;;3.65;1.60;;;19.20;54.10;;;;;;5069788;28;20302;-46
2021/11/02 02:56:22;;;;;;;4.97;1.92;;;19.20;54.30;;;;;;5068559;28;20203;-45
2021/11/02 02:58:58;;;;;;;5.75;2.03;;;19.20;54.30;;;;;;5061646;28;20261;-49
2021/11/02 03:01:29;;;;;;;7.10;2.28;;;19.10;54.50;;;;;;5053534;28;20200;-51
2021/11/02 03:04:05;;;;;;;3.38;1.48;;;19.10;54.60;;;;;;5062598;28;20302;-42
2021/11/02 03:06:44;;;;;;;4.90;1.75;;;19.10;54.60;;;;;;5057691;28;20614;-39
2021/11/02 03:09:15;;;;;;;3.50;1.65;;;19.10;54.60;;;;;;5058365;28;20195;-48
2021/11/02 03:11:46;;;;;;;10.27;8.40;;;19.00;54.70;;;;;;5059802;28;20736;-46
2021/11/02 03:14:25;;;;;;;4.55;2.80;;;19.00;54.90;;;;;;5052704;28;21478;-45
2021/11/02 03:17:00;;;;;;;6.10;3.85;;;19.00;55.10;;;;;;5067106;28;20214;-43
2021/11/02 03:48:32;;;;;;;3.50;1.50;;;18.80;54.90;;;;;;5042316;28;20241;-53
2021/11/02 03:51:10;;;;;;;4.03;1.38;;;18.70;54.70;;;;;;5054804;28;20301;-41
2021/11/02 03:56:56;;;;;;;4.85;2.95;;;18.70;54.70;;;;;;5049976;28;20865;-48
2021/11/02 04:27:58;;;;;;;3.78;1.13;;;18.30;54.10;;;;;;5062037;28;20569;-50
2021/11/02 05:49:22;;;;;;;7.60;5.18;;;17.60;56.10;;;;;;5043730;28;20685;-40
2021/11/02 05:57:51;;;;;;;8.25;3.58;;;17.60;56.10;;;;;;4993327;28;20252;-40
2021/11/02 06:00:23;;;;;;;6.38;3.15;;;17.60;56.10;;;;;;5044044;28;20207;-39
2021/11/02 06:03:24;;;;;;;7.15;4.10;;;17.60;56.10;;;;;;5068355;28;20198;-41
2021/11/02 06:06:05;;;;;;;15.35;12.82;;;17.60;56.20;;;;;;5051940;28;20278;-47
2021/11/02 06:28:39;;;;;;;6.75;3.55;;;17.40;56.50;;;;;;5052433;28;20222;-43
2021/11/02 06:31:13;;;;;;;11.07;7.63;;;17.40;56.50;;;;;;5053468;28;20227;-39
2021/11/02 06:33:50;;;;;;;15.63;10.05;;;17.40;56.30;;;;;;5053398;28;20219;-44
2021/11/02 06:39:35;;;;;;;11.48;7.90;;;17.40;56.30;;;;;;4993204;28;20363;-44
2021/11/02 06:42:24;;;;;;;7.60;5.57;;;17.30;56.20;;;;;;5049323;28;20203;-39
2021/11/02 06:56:59;;;;;;;5.35;3.08;;;17.20;56.30;;;;;;5052171;28;20282;-42
2021/11/02 07:19:58;;;;;;;5.07;1.95;;;17.40;58.70;;;;;;5068721;28;20318;-40
2021/11/02 07:22:50;;;;;;;3.25;2.25;;;17.40;58.40;;;;;;5062519;28;20194;-39
2021/11/02 07:25:30;;;;;;;3.88;2.33;;;17.50;58.20;;;;;;5069477;28;20230;-43
2021/11/02 07:28:17;;;;;;;3.75;2.00;;;17.50;58.00;;;;;;5069389;28;20232;-45
2021/11/02 08:47:34;;;;;;;3.38;1.77;;;17.70;55.20;;;;;;5047840;28;20282;-51
2021/11/02 08:50:06;;;;;;;2.97;2.13;;;17.70;55.20;;;;;;5066204;28;20711;-39
2021/11/02 08:52:40;;;;;;;3.25;2.05;;;17.70;55.20;;;;;;5049857;28;20227;-52
2021/11/02 08:55:12;;;;;;;2.97;1.95;;;17.70;55.20;;;;;;5061881;28;20678;-45
2021/11/02 08:57:43;;;;;;;3.38;2.38;;;17.70;55.10;;;;;;5053223;28;20235;-44
2021/11/02 09:00:14;;;;;;;3.50;2.28;;;17.70;55.20;;;;;;5056157;28;20301;-41
2021/11/02 09:02:50;;;;;;;2.97;2.30;;;17.70;55.20;;;;;;5061109;28;20237;-45
2021/11/02 09:05:25;;;;;;;3.78;2.35;;;17.70;55.10;;;;;;5062807;28;20663;-49
2021/11/02 09:08:01;;;;;;;2.85;2.00;;;17.70;55.10;;;;;;5063875;28;20278;-44
2021/11/02 09:10:31;;;;;;;3.40;2.17;;;17.70;55.00;;;;;;5062219;28;20362;-45
2021/11/02 09:13:03;;;;;;;4.10;2.42;;;17.70;55.00;;;;;;5050886;28;20632;-42
2021/11/02 09:15:36;;;;;;;3.20;2.00;;;17.60;54.80;;;;;;5050685;28;20281;-52
2021/11/02 09:18:11;;;;;;;2.30;1.83;;;17.70;54.90;;;;;;5048670;28;20299;-40
2021/11/02 09:20:42;;;;;;;2.40;1.80;;;17.70;54.80;;;;;;5049782;28;20282;-42
2021/11/02 09:23:15;;;;;;;2.83;1.95;;;17.60;54.70;;;;;;5050319;28;20258;-42
2021/11/02 09:25:45;;;;;;;2.35;2.00;;;17.60;54.70;;;;;;5062567;28;20237;-41
2021/11/02 09:28:16;;;;;;;2.50;2.05;;;17.70;54.80;;;;;;5060476;28;20199;-44
2021/11/02 09:30:47;;;;;;;2.38;1.95;;;17.60;54.70;;;;;;5050901;28;20227;-41
2021/11/02 09:33:19;;;;;;;2.03;1.70;;;17.60;54.60;;;;;;5066276;28;20310;-43
2021/11/02 09:35:58;;;;;;;2.47;1.83;;;17.60;54.60;;;;;;5049513;28;20234;-46
2021/11/02 09:38:34;;;;;;;2.40;1.88;;;17.60;54.60;;;;;;5055142;28;20310;-40
2021/11/02 09:41:43;;;;;;;3.03;2.00;;;17.60;54.70;;;;;;5050892;28;20278;-47
2021/11/02 09:44:52;;;;;;;2.88;1.90;;;17.60;54.60;;;;;;5060989;28;20253;-46
2021/11/02 09:48:06;;;;;;;2.50;1.85;;;17.60;54.60;;;;;;5018613;28;20648;-49
2021/11/02 09:50:53;;;;;;;2.70;1.60;;;17.60;54.50;;;;;;5038405;28;20282;-49
2021/11/02 09:53:58;;;;;;;2.30;1.80;;;17.60;54.50;;;;;;5061101;28;20247;-40
2021/11/02 09:56:46;;;;;;;2.22;1.77;;;17.60;54.50;;;;;;5062085;28;20234;-40
2021/11/02 09:59:54;;;;;;;2.15;1.80;;;17.60;54.40;;;;;;5051425;28;20258;-42
2021/11/02 10:02:55;;;;;;;3.25;1.88;;;17.60;54.40;;;;;;5058733;28;20316;-39
2021/11/02 10:05:41;;;;;;;2.17;1.67;;;17.60;54.40;;;;;;5056257;28;20194;-42
2021/11/02 10:08:33;;;;;;;2.75;1.60;;;17.50;54.30;;;;;;5050281;28;20192;-42
2021/11/02 10:11:26;;;;;;;1.85;1.70;;;17.50;54.30;;;;;;5049494;28;20200;-47
2021/11/02 10:14:25;;;;;;;1.88;1.73;;;17.50;54.40;;;;;;5046836;28;20309;-45
2021/11/02 10:17:28;;;;;;;2.40;1.65;;;17.50;54.40;;;;;;5048980;28;20204;-45
2021/11/02 10:20:10;;;;;;;2.40;2.03;;;17.50;54.30;;;;;;5053118;28;20230;-40
2021/11/02 10:23:21;;;;;;;2.33;1.98;;;17.50;54.30;;;;;;5054120;28;20290;-47
2021/11/02 10:26:20;;;;;;;2.75;1.80;;;17.50;54.20;;;;;;5062688;28;20202;-51
2021/11/02 10:29:31;;;;;;;2.55;1.73;;;17.50;54.30;;;;;;5054486;28;20302;-48
2021/11/02 10:32:06;;;;;;;2.25;1.75;;;17.50;54.20;;;;;;5053262;28;20282;-43
2021/11/02 10:34:48;;;;;;;1.80;1.60;;;17.50;54.20;;;;;;5053323;28;20778;-46
2021/11/02 10:37:27;;;;;;;2.38;1.90;;;17.50;54.30;;;;;;5053687;28;20202;-44
2021/11/02 10:40:23;;;;;;;2.20;2.00;;;17.50;54.80;;;;;;5062052;28;20313;-40
2021/11/02 10:43:16;;;;;;;3.25;2.03;;;17.40;54.20;;;;;;5064239;28;20202;-44
2021/11/02 10:45:54;;;;;;;2.50;2.00;;;17.50;54.30;;;;;;5053998;28;20207;-46
2021/11/02 10:48:31;;;;;;;2.53;2.03;;;17.50;54.30;;;;;;5051687;28;20223;-51
2021/11/02 10:51:09;;;;;;;3.08;2.15;;;17.40;54.30;;;;;;5058715;28;20254;-42
2021/11/02 10:53:41;;;;;;;2.78;2.33;;;17.40;54.30;;;;;;5058500;28;20726;-40
2021/11/02 10:56:22;;;;;;;2.45;1.88;;;17.40;54.20;;;;;;5053615;28;20270;-45
2021/11/02 10:58:56;;;;;;;2.80;1.65;;;17.40;54.30;;;;;;5044055;28;20230;-43
2021/11/02 11:01:29;;;;;;;2.22;2.00;;;17.40;54.20;;;;;;5064920;28;20283;-46
2021/11/02 11:04:03;;;;;;;2.50;1.83;;;17.40;54.20;;;;;;5050261;28;20254;-49
2021/11/02 11:06:36;;;;;;;2.92;2.00;;;17.40;54.10;;;;;;5058969;28;20230;-43
2021/11/02 11:09:10;;;;;;;2.90;2.15;;;17.40;54.10;;;;;;5050365;28;20290;-43
2021/11/02 11:11:47;;;;;;;2.60;1.88;;;17.40;54.10;;;;;;5049131;28;20277;-49
2021/11/02 11:14:18;;;;;;;2.97;2.22;;;17.40;54.10;;;;;;5050872;28;20219;-44
2021/11/02 11:16:51;;;;;;;2.58;1.80;;;17.40;54.10;;;;;;5062060;28;20294;-47
2021/11/02 11:19:29;;;;;;;2.00;1.77;;;17.40;54.10;;;;;;5055974;28;20306;-44
2021/11/02 11:22:01;;;;;;;2.20;2.00;;;17.40;54.10;;;;;;5050449;28;20214;-44
2021/11/02 11:24:37;;;;;;;2.65;1.60;;;17.40;54.00;;;;;;5050728;28;20219;-42
2021/11/02 11:27:09;;;;;;;2.33;1.80;;;17.40;54.10;;;;;;5051048;28;20246;-47
2021/11/02 11:29:49;;;;;;;2.05;1.85;;;17.30;54.00;;;;;;5050659;28;20238;-42
2021/11/02 11:32:19;;;;;;;1.80;1.60;;;17.40;54.10;;;;;;5035540;28;20689;-42
2021/11/02 11:34:54;;;;;;;2.20;1.98;;;17.30;53.90;;;;;;5050768;28;20298;-50
2021/11/02 11:37:29;;;;;;;2.25;1.73;;;17.30;53.90;;;;;;5067889;28;20666;-45
2021/11/02 11:40:05;;;;;;;3.40;1.85;;;17.30;53.90;;;;;;5066026;28;20254;-46
2021/11/02 11:42:36;;;;;;;2.60;1.58;;;17.30;53.90;;;;;;5051678;28;20302;-40
2021/11/02 11:45:11;;;;;;;2.63;2.00;;;17.30;54.00;;;;;;5061138;28;20763;-45
2021/11/02 11:47:42;;;;;;;2.42;2.03;;;17.30;53.90;;;;;;5055159;28;20277;-40
2021/11/02 11:50:25;;;;;;;2.92;1.80;;;17.30;53.90;;;;;;5055219;28;20282;-40
2021/11/02 11:52:59;;;;;;;1.83;1.70;;;17.30;53.90;;;;;;5062612;28;20636;-43
2021/11/02 11:55:31;;;;;;;3.00;1.77;;;17.30;53.80;;;;;;5063791;28;20220;-44
2021/11/02 11:58:14;;;;;;;2.75;1.67;;;17.30;53.80;;;;;;5056187;28;20282;-43
2021/11/02 12:00:46;;;;;;;2.65;1.67;;;17.30;53.80;;;;;;5064682;28;20285;-44
2021/11/02 12:03:36;;;;;;;1.95;1.27;;;17.30;53.80;;;;;;5067146;28;20310;-41
2021/11/02 12:06:17;;;;;;;3.22;1.90;;;17.30;53.80;;;;;;5037541;28;20283;-39
2021/11/02 12:08:53;;;;;;;1.63;1.48;;;17.30;53.90;;;;;;5066806;28;20222;-48
2021/11/02 12:11:25;;;;;;;2.05;1.48;;;17.20;53.80;;;;;;5067187;28;20237;-42
2021/11/02 12:14:02;;;;;;;1.80;1.50;;;17.20;53.80;;;;;;5063678;28;20762;-40
2021/11/02 12:16:38;;;;;;;1.55;1.45;;;17.20;53.80;;;;;;5063774;28;20282;-42
2021/11/02 12:19:13;;;;;;;2.72;1.60;;;17.20;53.80;;;;;;5058390;28;20253;-46
2021/11/02 12:21:52;;;;;;;2.13;1.40;;;17.20;53.70;;;;;;5050077;28;20203;-41
2021/11/02 12:24:30;;;;;;;2.05;1.70;;;17.20;53.80;;;;;;5055674;28;20223;-39
2021/11/02 12:27:14;;;;;;;2.00;1.50;;;17.20;53.80;;;;;;5058485;28;20667;-42
2021/11/02 12:29:45;;;;;;;1.98;1.48;;;17.20;53.80;;;;;;5050243;28;20226;-40
2021/11/02 12:32:17;;;;;;;1.58;1.45;;;17.20;53.70;;;;;;5050411;28;20283;-40
2021/11/02 12:35:03;;;;;;;2.20;1.80;;;17.20;53.70;;;;;;5049790;28;20898;-40
2021/11/02 12:37:36;;;;;;;1.75;1.50;;;17.20;53.70;;;;;;5035933;28;20203;-45
2021/11/02 12:40:21;;;;;;;1.70;1.40;;;17.20;53.60;;;;;;5032837;28;20311;-40
2021/11/02 12:42:52;;;;;;;1.92;1.50;;;17.20;53.70;;;;;;5048556;28;20238;-42
2021/11/02 12:45:23;;;;;;;1.67;1.30;;;17.10;53.60;;;;;;5066610;28;20756;-39
2021/11/02 12:47:59;;;;;;;2.00;1.60;;;17.20;53.70;;;;;;5064238;28;20698;-40
2021/11/02 12:50:35;;;;;;;2.72;1.80;;;17.10;53.60;;;;;;5051318;28;20233;-43
2021/11/02 12:53:07;;;;;;;1.92;1.52;;;17.10;53.60;;;;;;5049775;28;20199;-42
2021/11/02 12:55:39;;;;;;;1.60;1.50;;;17.10;53.60;;;;;;5050104;28;20664;-42
2021/11/02 12:58:20;;;;;;;1.70;1.48;;;17.10;53.60;;;;;;5046241;28;20226;-47
2021/11/02 13:00:52;;;;;;;2.20;1.58;;;17.10;53.60;;;;;;5050026;28;20312;-41
2021/11/02 13:03:27;;;;;;;2.10;1.60;;;17.10;53.60;;;;;;5050731;28;20250;-42
2021/11/02 13:06:02;;;;;;;1.48;1.20;;;17.10;53.60;;;;;;5050531;28;20195;-43
2021/11/02 13:08:43;;;;;;;1.95;1.20;;;17.10;53.60;;;;;;5032840;28;20241;-44
2021/11/02 13:11:15;;;;;;;1.55;1.35;;;17.10;53.60;;;;;;5031119;28;20246;-43
2021/11/02 13:14:07;;;;;;;2.13;1.30;;;17.10;53.50;;;;;;5049138;28;20313;-40
2021/11/02 13:16:59;;;;;;;2.05;1.50;;;17.10;53.60;;;;;;5048856;28;20686;-41
2021/11/02 13:19:36;;;;;;;1.50;1.40;;;17.10;53.50;;;;;;5048907;28;20211;-40
2021/11/02 13:22:17;;;;;;;1.58;1.30;;;17.00;53.50;;;;;;5050393;28;20649;-46
2021/11/02 13:25:05;;;;;;;2.15;1.40;;;17.00;53.50;;;;;;5049466;28;20832;-41
2021/11/02 13:27:37;;;;;;;1.80;1.30;;;17.00;53.50;;;;;;5049749;28;20238;-47
2021/11/02 13:30:25;;;;;;;2.30;1.10;;;17.00;53.50;;;;;;5060850;28;20230;-40
2021/11/02 13:33:06;;;;;;;1.50;1.15;;;17.00;53.50;;;;;;5051515;28;20245;-41
2021/11/02 13:35:58;;;;;;;2.13;1.52;;;17.00;53.50;;;;;;5054254;28;20286;-42
2021/11/02 13:38:34;;;;;;;1.27;1.17;;;17.00;53.50;;;;;;5045843;28;20195;-40
2021/11/02 13:41:11;;;;;;;1.80;1.27;;;17.00;53.40;;;;;;5049172;28;20733;-45
2021/11/02 13:43:42;;;;;;;2.13;1.35;;;17.00;53.40;;;;;;5049433;28;20215;-45
2021/11/02 13:46:13;;;;;;;2.08;1.50;;;17.00;53.40;;;;;;5049255;28;20278;-43
2021/11/02 13:48:44;;;;;;;2.20;1.30;;;16.90;53.40;;;;;;5049312;28;20305;-43
2021/11/02 13:51:17;;;;;;;1.48;1.10;;;17.00;53.40;;;;;;5048569;28;20911;-44
2021/11/02 13:53:47;;;;;;;2.35;1.40;;;17.00;53.40;;;;;;5035454;28;20255;-46
2021/11/02 13:56:21;;;;;;;1.63;1.10;;;16.90;53.30;;;;;;5069541;28;20278;-44
2021/11/02 13:58:52;;;;;;;2.00;1.33;;;16.90;53.30;;;;;;5052708;28;20275;-44
2021/11/02 14:01:26;;;;;;;1.83;1.33;;;16.90;53.30;;;;;;5065193;28;20222;-41
2021/11/02 14:04:02;;;;;;;1.35;1.25;;;16.90;53.30;;;;;;5066403;28;20257;-40
2021/11/02 14:06:35;;;;;;;1.90;1.33;;;16.90;53.30;;;;;;5052786;28;20286;-39
2021/11/02 14:09:08;;;;;;;1.30;1.10;;;16.90;53.30;;;;;;5052864;28;20286;-40
2021/11/02 14:11:42;;;;;;;1.40;1.20;;;16.90;53.40;;;;;;5052882;28;20231;-43
2021/11/02 14:14:35;;;;;;;1.88;1.10;;;16.90;53.30;;;;;;5053516;28;20722;-44
2021/11/02 14:17:19;;;;;;;2.17;1.13;;;16.90;53.30;;;;;;5064313;28;20231;-39
2021/11/02 14:19:50;;;;;;;1.88;1.30;;;16.90;53.30;;;;;;5052495;28;20619;-40
2021/11/02 14:22:47;;;;;;;1.58;1.15;;;16.90;53.30;;;;;;5067088;28;20283;-39
2021/11/02 14:25:19;;;;;;;1.70;1.02;;;16.90;53.30;;;;;;5038467;28;20207;-40
2021/11/02 14:27:53;;;;;;;2.95;1.60;;;16.90;53.30;;;;;;5052225;28;20279;-44
2021/11/02 14:30:25;;;;;;;1.88;1.20;;;16.90;53.30;;;;;;5051910;28;20223;-39
2021/11/02 14:32:57;;;;;;;1.23;1.13;;;16.90;53.30;;;;;;5067645;28;20631;-40
2021/11/02 14:35:48;;;;;;;1.83;1.27;;;16.80;53.20;;;;;;5051017;28;20283;-42
2021/11/02 14:38:20;;;;;;;1.65;1.30;;;16.80;53.20;;;;;;5051575;28;20289;-40
2021/11/02 14:40:51;;;;;;;1.92;1.30;;;16.80;53.20;;;;;;5051657;28;20314;-39
2021/11/02 14:43:32;;;;;;;1.63;1.27;;;16.80;53.20;;;;;;5059823;28;20257;-40
2021/11/02 14:46:05;;;;;;;1.85;1.48;;;16.80;53.20;;;;;;5065402;28;20277;-43
2021/11/02 14:48:40;;;;;;;1.27;1.17;;;16.80;53.20;;;;;;5061542;28;20191;-39
2021/11/02 14:51:25;;;;;;;1.55;1.20;;;16.80;53.20;;;;;;5052138;28;20203;-41
2021/11/02 14:53:57;;;;;;;1.58;1.20;;;16.80;53.20;;;;;;5053532;28;20222;-42
2021/11/02 14:56:34;;;;;;;1.35;1.02;;;16.80;53.20;;;;;;5066021;28;20223;-39
2021/11/02 14:59:11;;;;;;;1.30;1.20;;;16.80;53.20;;;;;;5035220;28;20282;-40
2021/11/02 15:02:15;;;;;;;1.42;1.33;;;16.80;53.20;;;;;;5068496;28;20230;-39
2021/11/02 15:04:46;;;;;;;1.83;1.20;;;16.70;53.20;;;;;;5023297;28;20223;-39
2021/11/02 15:07:18;;;;;;;1.58;1.20;;;16.80;53.10;;;;;;5050688;28;20227;-40
2021/11/02 15:09:51;;;;;;;1.58;1.30;;;16.80;53.10;;;;;;5052604;28;20234;-43
2021/11/02 15:12:25;;;;;;;1.27;0.90;;;16.80;53.10;;;;;;5051876;28;20246;-40
2021/11/02 15:14:58;;;;;;;1.80;1.27;;;16.70;53.10;;;;;;5051369;28;20265;-40
2021/11/02 15:17:28;;;;;;;2.03;1.10;;;16.70;53.00;;;;;;5051611;28;20719;-42
2021/11/02 15:19:59;;;;;;;1.35;1.00;;;16.70;53.10;;;;;;5054342;28;20234;-47
2021/11/02 15:22:30;;;;;;;1.50;1.00;;;16.70;53.00;;;;;;5052083;28;20291;-45
2021/11/02 15:25:02;;;;;;;1.65;1.20;;;16.70;53.00;;;;;;5052121;28;20247;-48
2021/11/02 15:27:34;;;;;;;0.90;0.77;;;16.70;53.00;;;;;;5066737;28;20231;-46
2021/11/02 15:30:09;;;;;;;1.20;1.02;;;16.70;53.10;;;;;;5068766;28;20202;-45
2021/11/02 15:32:40;;;;;;;0.90;0.80;;;16.70;53.10;;;;;;5050740;28;20714;-49
2021/11/02 15:35:13;;;;;;;1.20;1.02;;;16.70;53.20;;;;;;5051313;28;20226;-44
2021/11/02 15:37:45;;;;;;;1.05;0.85;;;16.70;53.10;;;;;;5063393;28;20238;-39
2021/11/02 15:40:19;;;;;;;1.27;1.00;;;16.70;53.20;;;;;;5054995;28;20281;-40
2021/11/02 15:42:51;;;;;;;1.48;0.95;;;16.70;53.10;;;;;;5050957;28;20502;-40
2021/11/02 15:45:30;;;;;;;1.25;1.00;;;16.70;53.00;;;;;;5055438;28;20238;-39
2021/11/02 15:48:08;;;;;;;1.35;1.17;;;16.70;53.10;;;;;;5064093;28;20197;-41
2021/11/02 15:50:42;;;;;;;1.10;1.00;;;16.60;53.00;;;;;;5061433;28;20202;-40
2021/11/02 15:53:13;;;;;;;1.33;1.00;;;16.60;52.90;;;;;;5050007;28;20250;-39
2021/11/02 15:55:44;;;;;;;1.45;1.10;;;16.60;53.00;;;;;;5067691;28;20281;-40
2021/11/02 15:58:16;;;;;;;1.73;1.02;;;16.60;53.00;;;;;;5050333;28;20227;-43
2021/11/02 16:00:48;;;;;;;1.92;1.17;;;16.70;53.00;;;;;;5066459;28;20720;-40
2021/11/02 16:03:19;;;;;;;1.65;1.10;;;16.60;53.10;;;;;;5051559;28;20255;-39
2021/11/02 16:05:50;;;;;;;2.08;1.13;;;16.60;53.00;;;;;;5049710;28;20467;-40
2021/11/02 16:08:22;;;;;;;1.77;1.05;;;16.60;53.00;;;;;;5050411;28;20290;-40
2021/11/02 16:10:54;;;;;;;1.10;0.90;;;16.60;53.00;;;;;;5055833;28;20295;-48
2021/11/02 16:13:29;;;;;;;1.95;1.05;;;16.60;53.00;;;;;;5061470;28;20298;-44
2021/11/02 16:16:02;;;;;;;1.83;0.90;;;16.60;53.00;;;;;;5049631;28;20270;-40
2021/11/02 16:18:34;;;;;;;1.00;0.90;;;16.60;53.00;;;;;;5050442;28;20279;-41
2021/11/02 16:21:06;;;;;;;2.05;1.13;;;16.60;53.00;;;;;;5049635;28;20285;-44
2021/11/02 16:23:43;;;;;;;2.78;1.00;;;16.60;53.00;;;;;;5050978;28;20277;-39
2021/11/02 16:26:18;;;;;;;1.80;1.10;;;16.60;52.90;;;;;;5050608;28;20238;-40
2021/11/02 16:28:49;;;;;;;1.55;0.90;;;16.60;53.00;;;;;;5062248;28;20234;-45
2021/11/02 16:31:27;;;;;;;1.00;0.90;;;16.60;52.90;;;;;;5051097;28;20623;-47
2021/11/02 16:33:58;;;;;;;1.63;1.20;;;16.50;52.80;;;;;;5049755;28;20231;-47
2021/11/02 16:36:30;;;;;;;1.05;0.90;;;16.60;52.90;;;;;;5054754;28;20621;-42
2021/11/02 16:39:02;;;;;;;1.08;0.95;;;16.50;52.80;;;;;;5057792;28;20860;-39
2021/11/02 16:41:34;;;;;;;1.77;1.13;;;16.50;52.80;;;;;;5049741;28;20732;-39
2021/11/02 16:44:06;;;;;;;2.20;1.05;;;16.50;52.80;;;;;;5049489;28;20247;-44
2021/11/02 16:46:41;;;;;;;1.00;0.90;;;16.50;52.90;;;;;;5066864;28;20231;-41
2021/11/02 16:49:12;;;;;;;1.45;0.80;;;16.50;52.90;;;;;;5050075;28;20227;-42
2021/11/02 16:51:49;;;;;;;1.05;0.90;;;16.50;52.80;;;;;;5051942;28;20235;-44
2021/11/02 16:54:21;;;;;;;1.80;1.10;;;16.50;52.80;;;;;;5050116;28;20298;-46
2021/11/02 16:57:07;;;;;;;1.88;0.95;;;16.50;52.90;;;;;;5050165;28;20237;-43
2021/11/02 16:59:53;;;;;;;1.58;0.95;;;16.50;52.80;;;;;;5059451;28;20641;-43
2021/11/02 17:02:27;;;;;;;1.42;1.17;;;16.50;52.80;;;;;;5053507;28;20273;-42
2021/11/02 17:05:12;;;;;;;1.40;1.00;;;16.50;52.80;;;;;;5056680;28;20250;-40
2021/11/02 17:07:45;;;;;;;1.02;0.85;;;16.50;52.80;;;;;;5049553;28;20584;-43
2021/11/02 17:10:38;;;;;;;1.67;1.25;;;16.50;52.80;;;;;;5049624;28;20279;-47
2021/11/02 17:13:10;;;;;;;1.10;0.90;;;16.50;52.80;;;;;;5047478;28;20253;-46
2021/11/02 17:15:47;;;;;;;1.77;1.10;;;16.50;52.70;;;;;;5048908;28;20261;-39
2021/11/02 17:18:25;;;;;;;1.42;1.23;;;16.50;52.80;;;;;;5062617;28;20290;-45
2021/11/02 17:21:05;;;;;;;1.73;1.08;;;16.50;52.80;;;;;;5063981;28;20254;-40
2021/11/02 17:23:36;;;;;;;1.05;0.93;;;16.40;52.70;;;;;;5033417;28;20718;-40
2021/11/02 17:26:10;;;;;;;1.63;1.00;;;16.40;52.70;;;;;;5048848;28;20274;-40
2021/11/02 17:28:43;;;;;;;1.60;1.05;;;16.40;52.80;;;;;;5049615;28;20196;-46
2021/11/02 17:31:14;;;;;;;1.45;1.10;;;16.40;52.70;;;;;;5049719;28;20203;-47
2021/11/02 17:33:47;;;;;;;1.88;1.00;;;16.40;52.80;;;;;;5059904;28;20254;-47
2021/11/02 17:36:18;;;;;;;1.48;1.00;;;16.40;52.80;;;;;;5054382;28;20726;-43
2021/11/02 17:38:51;;;;;;;1.90;0.98;;;16.40;52.80;;;;;;5054985;28;20694;-42
2021/11/02 17:41:21;;;;;;;1.50;0.90;;;16.40;52.80;;;;;;5059170;28;20632;-46
2021/11/02 17:43:54;;;;;;;1.10;1.00;;;16.40;52.80;;;;;;5049546;28;20752;-46
2021/11/02 17:46:25;;;;;;;1.30;0.98;;;16.40;52.70;;;;;;5063840;28;20602;-41
2021/11/02 17:48:58;;;;;;;1.80;1.27;;;16.40;52.80;;;;;;5066308;28;20226;-41
2021/11/02 17:51:29;;;;;;;1.35;0.98;;;16.40;52.70;;;;;;5058456;28;20198;-42
2021/11/02 17:54:00;;;;;;;1.40;1.02;;;16.40;52.70;;;;;;5049166;28;20227;-46
2021/11/02 17:56:31;;;;;;;2.45;1.10;;;16.40;52.70;;;;;;5058697;28;20667;-40
2021/11/02 17:59:04;;;;;;;1.85;1.17;;;16.40;52.70;;;;;;5049517;28;20227;-41
2021/11/02 18:01:35;;;;;;;1.48;1.15;;;16.40;52.70;;;;;;5055634;28;20272;-41
2021/11/02 18:04:08;;;;;;;1.30;1.17;;;16.40;52.70;;;;;;5062394;28;20248;-40
2021/11/02 18:06:39;;;;;;;1.98;1.08;;;16.40;52.70;;;;;;5057237;28;20207;-42
2021/11/02 18:09:11;;;;;;;1.42;0.90;;;16.40;52.70;;;;;;5062880;28;20234;-42
2021/11/02 18:11:42;;;;;;;1.50;1.10;;;16.40;52.70;;;;;;5033224;28;20199;-41